Don Miguel Hidalgo Y Costilla International Airport
MMGL : now visible

Airfield :











YOU CAN JOIN US ON...

 
LOGIN :

Register | Disclaimer

   EN    FR    IT 

 









Legend :    VFR   Marginal VFR   IFR   Intensive IFR   Very Intensive IFR
Visi :
Ceiling :
>= 8 km
>= 3000ft
5 to 8 km
1000 to 3000 ft
1500m to 5 km
500 to 1000 ft
800 to 1500m
200 to 500 ft
< 800m
< 200 ft
Symbols :   Thunderstorms  Fog  Heavy snow  Heavy precipitations  Wind > 20 kt






- Airport Elevation : 5016 ft
- IATA code : GDL


MMGL - Don Miguel Hidalgo Y Costilla International

CURRENT METAR :
  • 140842Z 00000KT 8SM BKN020 OVC090 14/13 A3020 RMK SLP132 57006 909 8/57/

EXPIRED METARs :
  • 140741Z 00000KT 8SM BKN020 OVC090 15/13 A3020 RMK 8/57/
  • 140644Z 00000KT 7SM -RA BKN020 OVC090 15/13 A3021 RMK 60025 8/57/ RA INTMT

TAF TAF MMGL
Valid from the 14 at 06:00 until the 15 at 12:00 UTC


140447Z 1406/1512 31006KT 4SM RA BKN015 OVC090 TX22/1421Z TN14/1412Z
FM141100 00000KT 6SM HZ SCT020 BKN090 BKN250
FM141800 25010KT P6SM BKN025 BKN090 OVC240
BECMG 1505/1507 06004KT



MET'MAP, your aeronautical weather chart ! - Copyright ORBIFLY December 2007 - Disclaimer

ORBIFLY MET'MAP TEAM :

Programming & Development : Alexandra Zaïnal
Concept & Development : Baudouin d'Aumeries
Co-Development & Prog : Marc-Olivier Méhu
Technical & hardware support : Manuel Goepfert

Contact : metmap@orbifly.com




SOURCES & CREDITS :

   NOAA       Earth
Advisory